DLH33L LSZH-EDDF
Flight info
| Callsign | DLH33L |
|---|---|
| Flight time | N/A |
| Altitude | 23000 |
| Route | DEGES1Y DEGES Z1 SUDEN T164 KOVAN T163 SPESA SPESA4B |
| Aircraft | A320/M-SDE3FGHIRWY/LB1 |
Departure
| Time | N/A |
|---|---|
| Airport | Zürich Airport (LSZH) |
Arrival
| Time | 2026-05-04 18:38 |
|---|---|
| Airport | Frankfurt Main Airport (EDDF) |
| Time | Latitude | Longitude | Altitude | Speed | Heading |
|---|---|---|---|---|---|
| 2026-05-04 18:00 | 47.41895 | 9.17727 | 22997 ft | 363 kts | 91° |
| 2026-05-04 18:00 | 47.42154 | 9.20906 | 22996 ft | 366 kts | 79° |
| 2026-05-04 18:00 | 47.43123 | 9.24944 | 22989 ft | 369 kts | 64° |
| 2026-05-04 18:00 | 47.44392 | 9.28267 | 22987 ft | 370 kts | 61° |
| 2026-05-04 18:01 | 47.45660 | 9.31542 | 22984 ft | 370 kts | 61° |
| 2026-05-04 18:01 | 47.46940 | 9.34842 | 22982 ft | 370 kts | 59° |
| 2026-05-04 18:01 | 47.48495 | 9.37862 | 22982 ft | 370 kts | 46° |
| 2026-05-04 18:02 | 47.52722 | 9.42125 | 22969 ft | 368 kts | 19° |
| 2026-05-04 18:02 | 47.55139 | 9.43332 | 22964 ft | 367 kts | 16° |
| 2026-05-04 18:02 | 47.57545 | 9.44482 | 22971 ft | 366 kts | 13° |
| 2026-05-04 18:02 | 47.60051 | 9.45179 | 22967 ft | 363 kts | 2° |
| 2026-05-04 18:03 | 47.62545 | 9.45345 | 22956 ft | 362 kts | 359° |
| 2026-05-04 18:03 | 47.65109 | 9.45484 | 22960 ft | 362 kts | 359° |
| 2026-05-04 18:03 | 47.67599 | 9.45618 | 22963 ft | 363 kts | 359° |
| 2026-05-04 18:03 | 47.70112 | 9.45752 | 22969 ft | 363 kts | 359° |
| 2026-05-04 18:04 | 47.72650 | 9.45885 | 22982 ft | 362 kts | 359° |
| 2026-05-04 18:04 | 47.75146 | 9.46018 | 22985 ft | 362 kts | 359° |
| 2026-05-04 18:04 | 47.80181 | 9.46290 | 22987 ft | 361 kts | 359° |
| 2026-05-04 18:05 | 47.82652 | 9.46364 | 22985 ft | 360 kts | 358° |
| 2026-05-04 18:05 | 47.85171 | 9.46364 | 22988 ft | 360 kts | 357° |
| 2026-05-04 18:05 | 47.87652 | 9.46329 | 22988 ft | 359 kts | 356° |
| 2026-05-04 18:05 | 47.90158 | 9.46283 | 22990 ft | 359 kts | 356° |
| 2026-05-04 18:06 | 47.95164 | 9.46216 | 22995 ft | 358 kts | 357° |
| 2026-05-04 18:06 | 47.97636 | 9.46200 | 22988 ft | 358 kts | 357° |
| 2026-05-04 18:06 | 48.00135 | 9.46192 | 22996 ft | 358 kts | 357° |
| 2026-05-04 18:07 | 48.02632 | 9.46191 | 22993 ft | 358 kts | 358° |
| 2026-05-04 18:07 | 48.05096 | 9.46191 | 22989 ft | 358 kts | 357° |
| 2026-05-04 18:07 | 48.07609 | 9.46191 | 22986 ft | 358 kts | 357° |
| 2026-05-04 18:07 | 48.10074 | 9.46194 | 22988 ft | 358 kts | 357° |
| 2026-05-04 18:08 | 48.12568 | 9.46196 | 22973 ft | 358 kts | 357° |
| 2026-05-04 18:08 | 48.15063 | 9.46195 | 22979 ft | 357 kts | 357° |
| 2026-05-04 18:08 | 48.17550 | 9.46192 | 22973 ft | 357 kts | 357° |
| 2026-05-04 18:08 | 48.20036 | 9.46190 | 22972 ft | 357 kts | 357° |
| 2026-05-04 18:09 | 48.25006 | 9.46189 | 22977 ft | 357 kts | 357° |
| 2026-05-04 18:09 | 48.29990 | 9.46135 | 22984 ft | 357 kts | 355° |
| 2026-05-04 18:10 | 48.32470 | 9.45993 | 22973 ft | 357 kts | 354° |
| 2026-05-04 18:10 | 48.34954 | 9.45801 | 22976 ft | 357 kts | 354° |
| 2026-05-04 18:10 | 48.37436 | 9.45590 | 22981 ft | 357 kts | 354° |
| 2026-05-04 18:10 | 48.39921 | 9.45382 | 22986 ft | 357 kts | 354° |
| 2026-05-04 18:11 | 48.42374 | 9.45190 | 22983 ft | 357 kts | 354° |
| 2026-05-04 18:11 | 48.44855 | 9.45008 | 22982 ft | 357 kts | 354° |
| 2026-05-04 18:11 | 48.47383 | 9.44810 | 22977 ft | 362 kts | 354° |
| 2026-05-04 18:11 | 48.49876 | 9.44633 | 22983 ft | 357 kts | 354° |
| 2026-05-04 18:12 | 48.52362 | 9.44464 | 22984 ft | 357 kts | 355° |
| 2026-05-04 18:12 | 48.54851 | 9.44296 | 22979 ft | 357 kts | 354° |
| 2026-05-04 18:12 | 48.57338 | 9.44127 | 22979 ft | 358 kts | 355° |
| 2026-05-04 18:12 | 48.59825 | 9.43958 | 22977 ft | 358 kts | 354° |
| 2026-05-04 18:13 | 48.62313 | 9.43787 | 22975 ft | 358 kts | 354° |
| 2026-05-04 18:13 | 48.64799 | 9.43610 | 22980 ft | 358 kts | 354° |
| 2026-05-04 18:13 | 48.69746 | 9.43252 | 22976 ft | 358 kts | 354° |
| 2026-05-04 18:14 | 48.72231 | 9.43074 | 22972 ft | 358 kts | 354° |
| 2026-05-04 18:14 | 48.74729 | 9.42899 | 22975 ft | 358 kts | 354° |
| 2026-05-04 18:14 | 48.77218 | 9.42724 | 22978 ft | 358 kts | 354° |
| 2026-05-04 18:15 | 48.82204 | 9.42376 | 22974 ft | 358 kts | 354° |
| 2026-05-04 18:15 | 48.87199 | 9.42020 | 22980 ft | 359 kts | 354° |
| 2026-05-04 18:15 | 48.89667 | 9.41842 | 22977 ft | 359 kts | 354° |
| 2026-05-04 18:16 | 48.92162 | 9.41666 | 22980 ft | 359 kts | 354° |
| 2026-05-04 18:16 | 48.94640 | 9.41494 | 22983 ft | 359 kts | 354° |
| 2026-05-04 18:16 | 48.97147 | 9.41318 | 22981 ft | 359 kts | 354° |
| 2026-05-04 18:17 | 49.02152 | 9.40963 | 22982 ft | 359 kts | 354° |
| 2026-05-04 18:17 | 49.04657 | 9.40783 | 22981 ft | 359 kts | 354° |
| 2026-05-04 18:17 | 49.09662 | 9.40417 | 22977 ft | 360 kts | 354° |
| 2026-05-04 18:18 | 49.12163 | 9.40234 | 22978 ft | 360 kts | 354° |
| 2026-05-04 18:18 | 49.14671 | 9.40052 | 22979 ft | 360 kts | 354° |
| 2026-05-04 18:18 | 49.17137 | 9.39875 | 22977 ft | 360 kts | 354° |
| 2026-05-04 18:18 | 49.19676 | 9.39694 | 22978 ft | 360 kts | 354° |
| 2026-05-04 18:19 | 49.24650 | 9.39335 | 22978 ft | 360 kts | 354° |
| 2026-05-04 18:19 | 49.27158 | 9.39153 | 22983 ft | 360 kts | 354° |
| 2026-05-04 18:19 | 49.29662 | 9.38969 | 22981 ft | 360 kts | 354° |
| 2026-05-04 18:20 | 49.32164 | 9.38788 | 22979 ft | 360 kts | 354° |
| 2026-05-04 18:20 | 49.34677 | 9.38606 | 22979 ft | 360 kts | 355° |
| 2026-05-04 18:20 | 49.37184 | 9.38422 | 22980 ft | 360 kts | 354° |
| 2026-05-04 18:20 | 49.39694 | 9.38237 | 22979 ft | 360 kts | 355° |
| 2026-05-04 18:21 | 49.42239 | 9.38051 | 22622 ft | 373 kts | 355° |
| 2026-05-04 18:21 | 49.44849 | 9.37859 | 21961 ft | 375 kts | 355° |
| 2026-05-04 18:21 | 49.47423 | 9.37668 | 21315 ft | 372 kts | 355° |
| 2026-05-04 18:21 | 49.49977 | 9.37484 | 20691 ft | 362 kts | 355° |
| 2026-05-04 18:22 | 49.52463 | 9.37309 | 20071 ft | 352 kts | 355° |
| 2026-05-04 18:22 | 49.54886 | 9.37138 | 19465 ft | 347 kts | 355° |
| 2026-05-04 18:22 | 49.57282 | 9.36967 | 18872 ft | 343 kts | 355° |
| 2026-05-04 18:22 | 49.59667 | 9.36794 | 18287 ft | 339 kts | 355° |
| 2026-05-04 18:23 | 49.62021 | 9.36623 | 17618 ft | 336 kts | 355° |
| 2026-05-04 18:23 | 49.64342 | 9.36451 | 16963 ft | 332 kts | 355° |
| 2026-05-04 18:23 | 49.66641 | 9.36279 | 16320 ft | 329 kts | 355° |
| 2026-05-04 18:23 | 49.68921 | 9.36111 | 15694 ft | 326 kts | 355° |
| 2026-05-04 18:24 | 49.71179 | 9.35946 | 15075 ft | 323 kts | 355° |
| 2026-05-04 18:24 | 49.73419 | 9.35784 | 14470 ft | 321 kts | 355° |
| 2026-05-04 18:24 | 49.75642 | 9.35621 | 13873 ft | 318 kts | 355° |
| 2026-05-04 18:24 | 49.77831 | 9.35222 | 13229 ft | 313 kts | 341° |
| 2026-05-04 18:25 | 49.79735 | 9.33834 | 12586 ft | 304 kts | 320° |
| 2026-05-04 18:25 | 49.81186 | 9.31537 | 11941 ft | 296 kts | 300° |
| 2026-05-04 18:25 | 49.82265 | 9.28847 | 11308 ft | 293 kts | 298° |
| 2026-05-04 18:25 | 49.83328 | 9.26162 | 10686 ft | 290 kts | 298° |
| 2026-05-04 18:26 | 49.84383 | 9.23508 | 10091 ft | 288 kts | 298° |
| 2026-05-04 18:26 | 49.85432 | 9.20876 | 9454 ft | 286 kts | 298° |
| 2026-05-04 18:26 | 49.86478 | 9.18247 | 8794 ft | 284 kts | 298° |
| 2026-05-04 18:26 | 49.87509 | 9.15648 | 8150 ft | 282 kts | 298° |
| 2026-05-04 18:27 | 49.88650 | 9.13174 | 7510 ft | 283 kts | 314° |
| 2026-05-04 18:27 | 49.90311 | 9.11618 | 6907 ft | 286 kts | 342° |
| 2026-05-04 18:27 | 49.92284 | 9.11365 | 6295 ft | 286 kts | 8° |
| 2026-05-04 18:27 | 49.94220 | 9.11969 | 5658 ft | 281 kts | 13° |
| 2026-05-04 18:28 | 49.96088 | 9.12668 | 5138 ft | 276 kts | 14° |
| 2026-05-04 18:28 | 49.97984 | 9.13376 | 5003 ft | 277 kts | 14° |
| 2026-05-04 18:28 | 49.99221 | 9.13835 | 5010 ft | 277 kts | 14° |
| 2026-05-04 18:28 | 50.01105 | 9.14533 | 5010 ft | 276 kts | 12° |
| 2026-05-04 18:29 | 50.03019 | 9.14627 | 5011 ft | 276 kts | 349° |
| 2026-05-04 18:29 | 50.04864 | 9.13943 | 5010 ft | 276 kts | 345° |
| 2026-05-04 18:29 | 50.06715 | 9.13146 | 5011 ft | 276 kts | 344° |
| 2026-05-04 18:29 | 50.08555 | 9.12344 | 5010 ft | 276 kts | 344° |
| 2026-05-04 18:30 | 50.11968 | 9.09859 | 5013 ft | 273 kts | 310° |
| 2026-05-04 18:30 | 50.12875 | 9.07306 | 5012 ft | 271 kts | 288° |
| 2026-05-04 18:30 | 50.13396 | 9.04516 | 5009 ft | 271 kts | 283° |
| 2026-05-04 18:31 | 50.13862 | 9.01671 | 5013 ft | 271 kts | 283° |
| 2026-05-04 18:31 | 50.14305 | 8.98921 | 5014 ft | 271 kts | 283° |
| 2026-05-04 18:31 | 50.14654 | 8.96108 | 5012 ft | 253 kts | 268° |
| 2026-05-04 18:31 | 50.14344 | 8.93541 | 5010 ft | 233 kts | 249° |
| 2026-05-04 18:32 | 50.13758 | 8.91174 | 5009 ft | 230 kts | 246° |
| 2026-05-04 18:32 | 50.13165 | 8.88945 | 5011 ft | 213 kts | 246° |
| 2026-05-04 18:32 | 50.12594 | 8.86929 | 4990 ft | 200 kts | 245° |
| 2026-05-04 18:32 | 50.12078 | 8.84939 | 4822 ft | 196 kts | 248° |
| 2026-05-04 18:33 | 50.11602 | 8.82965 | 4567 ft | 192 kts | 248° |
| 2026-05-04 18:33 | 50.11149 | 8.81052 | 4296 ft | 188 kts | 249° |
| 2026-05-04 18:33 | 50.10699 | 8.79146 | 4025 ft | 187 kts | 249° |
| 2026-05-04 18:33 | 50.10253 | 8.77258 | 3775 ft | 184 kts | 249° |
| 2026-05-04 18:34 | 50.09820 | 8.75426 | 3519 ft | 178 kts | 249° |
| 2026-05-04 18:34 | 50.09392 | 8.73615 | 3271 ft | 178 kts | 250° |
| 2026-05-04 18:34 | 50.08962 | 8.71800 | 3016 ft | 178 kts | 250° |
| 2026-05-04 18:34 | 50.08539 | 8.70012 | 2770 ft | 178 kts | 251° |
| 2026-05-04 18:35 | 50.08115 | 8.68223 | 2518 ft | 177 kts | 251° |
| 2026-05-04 18:35 | 50.07688 | 8.66427 | 2261 ft | 172 kts | 251° |
| 2026-05-04 18:35 | 50.07284 | 8.64724 | 2019 ft | 164 kts | 251° |
| 2026-05-04 18:35 | 50.06898 | 8.63101 | 1808 ft | 153 kts | 251° |
| 2026-05-04 18:36 | 50.06548 | 8.61626 | 1589 ft | 143 kts | 252° |
| 2026-05-04 18:36 | 50.06222 | 8.60188 | 1414 ft | 143 kts | 252° |
| 2026-05-04 18:36 | 50.05873 | 8.58739 | 1175 ft | 143 kts | 251° |
| 2026-05-04 18:36 | 50.05523 | 8.57310 | 940 ft | 141 kts | 252° |
| 2026-05-04 18:37 | 50.05187 | 8.55898 | 760 ft | 140 kts | 252° |
| 2026-05-04 18:37 | 50.04849 | 8.54471 | 554 ft | 139 kts | 251° |
| 2026-05-04 18:37 | 50.04501 | 8.53057 | 372 ft | 139 kts | 252° |
| 2026-05-04 18:37 | 50.04193 | 8.51741 | 334 ft | 115 kts | 249° |
| 2026-05-04 18:38 | 50.04005 | 8.50951 | 323 ft | 63 kts | 249° |
| 2026-05-04 18:38 | 50.03882 | 8.50488 | 321 ft | 39 kts | 238° |
| 2026-05-04 18:38 | 50.03726 | 8.50234 | 320 ft | 28 kts | 221° |
| 2026-05-04 18:38 | 50.03628 | 8.50234 | 320 ft | 14 kts | 108° |
| 2026-05-04 18:39 | 50.03643 | 8.50345 | 321 ft | 0 kts | 69° |
| 2026-05-04 18:39 | 50.03646 | 8.50359 | 322 ft | 8 kts | 70° |
| 2026-05-04 18:39 | 50.03672 | 8.50480 | 322 ft | 12 kts | 69° |
| 2026-05-04 18:40 | 50.03710 | 8.50636 | 322 ft | 21 kts | 69° |
| 2026-05-04 18:40 | 50.03773 | 8.50895 | 327 ft | 29 kts | 69° |
| 2026-05-04 18:40 | 50.03848 | 8.51206 | 331 ft | 27 kts | 69° |
| 2026-05-04 18:40 | 50.03920 | 8.51508 | 335 ft | 32 kts | 69° |
| 2026-05-04 18:41 | 50.03995 | 8.51818 | 336 ft | 31 kts | 69° |
| 2026-05-04 18:41 | 50.04071 | 8.52139 | 347 ft | 32 kts | 69° |
| 2026-05-04 18:41 | 50.04151 | 8.52472 | 345 ft | 34 kts | 69° |
| 2026-05-04 18:41 | 50.04234 | 8.52822 | 352 ft | 34 kts | 68° |
| 2026-05-04 18:42 | 50.04316 | 8.53157 | 359 ft | 32 kts | 69° |
| 2026-05-04 18:42 | 50.04383 | 8.53435 | 360 ft | 27 kts | 72° |
| 2026-05-04 18:42 | 50.04409 | 8.53725 | 359 ft | 28 kts | 82° |
| 2026-05-04 18:42 | 50.04421 | 8.53901 | 359 ft | 0 kts | 83° |
| 2026-05-04 18:44 | 50.04423 | 8.53931 | 359 ft | 0 kts | 84° |
| 2026-05-04 18:44 | 50.04423 | 8.53933 | 359 ft | 2 kts | 84° |
| 2026-05-04 18:45 | 50.04427 | 8.54000 | 360 ft | 10 kts | 85° |
| 2026-05-04 18:45 | 50.04436 | 8.54153 | 360 ft | 19 kts | 85° |
| 2026-05-04 18:45 | 50.04451 | 8.54390 | 360 ft | 28 kts | 84° |
| 2026-05-04 18:45 | 50.04401 | 8.54659 | 361 ft | 28 kts | 127° |
| 2026-05-04 18:46 | 50.04239 | 8.54812 | 362 ft | 29 kts | 160° |
| 2026-05-04 18:46 | 50.04050 | 8.54921 | 361 ft | 28 kts | 159° |
| 2026-05-04 18:46 | 50.03886 | 8.55017 | 362 ft | 18 kts | 159° |
| 2026-05-04 18:46 | 50.03855 | 8.55151 | 364 ft | 16 kts | 71° |
| 2026-05-04 18:47 | 50.03910 | 8.55375 | 363 ft | 28 kts | 69° |
| 2026-05-04 18:47 | 50.03985 | 8.55686 | 361 ft | 33 kts | 69° |
| 2026-05-04 18:47 | 50.04030 | 8.55871 | 365 ft | 6 kts | 72° |
| 2026-05-04 18:47 | 50.04050 | 8.55963 | 359 ft | 13 kts | 70° |
| 2026-05-04 18:48 | 50.04096 | 8.56153 | 362 ft | 22 kts | 69° |
| 2026-05-04 18:48 | 50.04167 | 8.56276 | 359 ft | 15 kts | 353° |
| 2026-05-04 18:48 | 50.04280 | 8.56210 | 361 ft | 14 kts | 314° |
| 2026-05-04 18:48 | 50.04322 | 8.56062 | 364 ft | 20 kts | 341° |
| 2026-05-04 18:49 | 50.04433 | 8.56062 | 364 ft | 16 kts | 57° |
| 2026-05-04 18:49 | 50.04483 | 8.56254 | 360 ft | 22 kts | 70° |
| 2026-05-04 18:49 | 50.04525 | 8.56414 | 361 ft | 7 kts | 53° |
| 2026-05-04 18:49 | 50.04608 | 8.56482 | 365 ft | 19 kts | 26° |
| 2026-05-04 18:50 | 50.04668 | 8.56532 | 361 ft | 3 kts | 53° |
| 2026-05-04 18:50 | 50.04663 | 8.56568 | 360 ft | 5 kts | 107° |
| 2026-05-04 18:50 | 50.04644 | 8.56638 | 365 ft | 6 kts | 116° |
| 2026-05-04 18:50 | 50.04636 | 8.56665 | 363 ft | 4 kts | 116° |
| 2026-05-04 18:51 | 50.04634 | 8.56671 | 362 ft | 0 kts | 116° |